This is the latest recevied weather packets stored in our database for station/object DK8HC-WX. If no packets are shown the sender has not sent any weather packets the latest 10 day(s).
| Time | Temp. | Humidity | Pressure | Rain* | Wind** | Luminosity | Snow |
|---|---|---|---|---|---|---|---|
| 1777896109 | 27.78° C | 63% | 1015.2 hPa | - | - | - | - |
| 1777895508 | 25° C | 66% | 1015.1 hPa | - | - | - | - |
| 1777894909 | 26.67° C | 60% | 1015.3 hPa | - | - | - | - |
| 1777894309 | 27.22° C | 54% | 1015.4 hPa | - | - | - | - |
| 1777893708 | 29.44° C | 60% | 1015.5 hPa | - | - | - | - |
| 1777893108 | 25.56° C | 69% | 1015.2 hPa | - | - | - | - |
| 1777892508 | 25° C | 68% | 1015.2 hPa | - | - | - | - |
| 1777891909 | 27.22° C | 64% | 1015.7 hPa | - | - | - | - |
| 1777891308 | 28.89° C | 60% | 1015.8 hPa | - | - | - | - |
| 1777890708 | 27.22° C | 65% | 1015.8 hPa | - | - | - | - |
| 1777890108 | 27.22° C | 69% | 1015.6 hPa | - | - | - | - |
| 1777889508 | 27.22° C | 75% | 1015.8 hPa | - | - | - | - |
| 1777888908 | 26.11° C | 78% | 1015.5 hPa | - | - | - | - |
| 1777888308 | 25° C | 95% | 1015.3 hPa | - | - | - | - |
| 1777887708 | 23.33° C | 100% | 1015 hPa | - | - | - | - |
| 1777887108 | 23.33° C | 100% | 1014.9 hPa | - | - | - | - |
| 1777886508 | 21.67° C | 100% | 1014.7 hPa | - | - | - | - |
| 1777885908 | 20.56° C | 100% | 1014.6 hPa | - | - | - | - |
| 1777885308 | 20° C | 100% | 1014.7 hPa | - | - | - | - |
| 1777884708 | 20.56° C | 100% | 1014.8 hPa | - | - | - | - |
| 1777884108 | 21.67° C | 100% | 1015.1 hPa | - | - | - | - |
| 1777883508 | 22.78° C | 92% | 1015.4 hPa | - | - | - | - |
| 1777882908 | 24.44° C | 74% | 1015.6 hPa | - | - | - | - |
| 1777882308 | 27.22° C | 71% | 1015.7 hPa | - | - | - | - |
| 1777881708 | 25.56° C | 76% | 1015.6 hPa | - | - | - | - |
* Rain since midnight (hover to see other rain measurements)
** Current wind speed in m/s (hover to see current wind gust speed)